createdAt,value
2022-08-26T00:00:07.270Z,99.99
2022-08-26T00:01:07.196Z,99.99
2022-08-26T00:02:07.409Z,99.99
2022-08-26T00:03:07.355Z,99.99
2022-08-26T00:04:07.046Z,99.99
2022-08-26T00:05:06.908Z,99.99
2022-08-26T00:06:06.829Z,99.99
2022-08-26T00:07:06.755Z,99.99
2022-08-26T00:08:06.682Z,99.99
2022-08-26T00:09:08.019Z,99.99
2022-08-26T00:10:06.534Z,99.99
2022-08-26T00:11:06.463Z,99.99
2022-08-26T00:12:06.388Z,99.99
2022-08-26T00:13:06.494Z,99.99
2022-08-26T00:14:06.242Z,99.99
2022-08-26T00:15:06.170Z,99.99
2022-08-26T00:16:06.207Z,99.99
2022-08-26T00:17:06.023Z,99.99
2022-08-26T00:18:05.949Z,99.99
2022-08-26T00:19:05.883Z,99.99
2022-08-26T00:20:05.851Z,99.99
2022-08-26T00:21:06.051Z,99.99
2022-08-26T00:22:05.654Z,99.99
2022-08-26T00:23:05.639Z,99.99
2022-08-26T00:24:05.505Z,99.99
2022-08-26T00:25:05.433Z,99.99
2022-08-26T00:26:05.358Z,99.99
2022-08-26T00:27:06.282Z,99.99
2022-08-26T00:28:05.211Z,99.99
2022-08-26T00:29:05.639Z,99.99
2022-08-26T00:30:05.417Z,99.99
2022-08-26T00:31:04.991Z,99.99
2022-08-26T00:32:05.028Z,99.99
2022-08-26T00:33:04.847Z,99.99
2022-08-26T00:34:04.930Z,99.99
2022-08-26T00:35:04.698Z,99.99
2022-08-26T00:36:04.624Z,99.99
2022-08-26T00:37:04.553Z,99.99
2022-08-26T00:38:04.481Z,99.99
2022-08-26T00:39:04.407Z,99.99
2022-08-26T00:40:05.009Z,99.99
2022-08-26T00:41:04.260Z,99.99
2022-08-26T00:42:04.185Z,99.99
2022-08-26T00:43:09.485Z,99.99
2022-08-26T00:44:04.038Z,99.99
2022-08-26T00:45:03.969Z,99.99
2022-08-26T00:46:03.986Z,99.99
2022-08-26T00:47:03.817Z,99.99
2022-08-26T00:48:03.835Z,99.99
2022-08-26T00:49:03.674Z,99.99
2022-08-26T00:50:03.599Z,99.99
2022-08-26T00:51:03.525Z,99.99
2022-08-26T00:52:03.451Z,99.99
2022-08-26T00:53:03.507Z,99.99
2022-08-26T00:54:03.665Z,99.99
2022-08-26T00:55:03.232Z,99.99
2022-08-26T00:56:03.158Z,99.99
2022-08-26T00:57:03.091Z,99.99
2022-08-26T00:58:03.013Z,99.99
2022-08-26T00:59:02.938Z,99.99
2022-08-26T01:00:02.865Z,99.99
2022-08-26T01:01:02.839Z,99.99
2022-08-26T01:02:03.211Z,99.99
2022-08-26T01:03:02.648Z,99.99
2022-08-26T01:04:02.573Z,99.99
2022-08-26T01:05:03.348Z,99.99
2022-08-26T01:06:02.426Z,99.99
2022-08-26T01:07:02.352Z,99.99
2022-08-26T01:08:02.280Z,99.99
2022-08-26T01:09:02.208Z,99.99
2022-08-26T01:10:02.132Z,99.99
2022-08-26T01:11:02.061Z,99.99
2022-08-26T01:12:01.990Z,99.99
2022-08-26T01:13:01.914Z,99.99
2022-08-26T01:14:01.840Z,99.99
2022-08-26T01:15:01.772Z,99.99
2022-08-26T01:16:01.828Z,99.99
2022-08-26T01:17:01.623Z,99.99
2022-08-26T01:18:01.549Z,99.99
2022-08-26T01:19:01.478Z,99.99
2022-08-26T01:20:01.404Z,99.99
2022-08-26T01:21:01.330Z,99.99
2022-08-26T01:22:01.256Z,99.99
2022-08-26T01:23:03.353Z,99.99
2022-08-26T01:24:01.109Z,99.99
2022-08-26T01:25:01.037Z,99.99
2022-08-26T01:26:00.964Z,99.99
2022-08-26T01:27:01.514Z,99.99
2022-08-26T01:28:01.018Z,99.99
2022-08-26T01:29:00.746Z,99.99
2022-08-26T01:30:00.671Z,99.99
2022-08-26T03:12:06.598Z,99.99
2022-08-26T03:13:06.790Z,99.99
2022-08-26T03:14:06.447Z,99.99
2022-08-26T03:15:16.021Z,99.99
2022-08-26T03:16:06.362Z,99.99
2022-08-26T03:17:07.029Z,99.99
2022-08-26T03:18:06.190Z,99.99
2022-08-26T03:19:06.188Z,99.99
2022-08-26T03:20:06.011Z,99.99
2022-08-26T03:21:05.962Z,99.99
2022-08-26T03:22:05.864Z,99.99
2022-08-26T03:23:05.788Z,99.99
2022-08-26T03:24:05.711Z,99.99
2022-08-26T03:25:05.650Z,99.99
2022-08-26T03:26:05.565Z,99.99
2022-08-26T03:27:05.914Z,99.99
2022-08-26T03:28:05.417Z,99.99
2022-08-26T03:29:05.343Z,99.99
2022-08-26T03:30:05.269Z,99.99
2022-08-26T03:31:05.251Z,99.99
2022-08-26T03:32:05.121Z,99.99
2022-08-26T03:33:05.137Z,99.99
2022-08-26T03:34:04.975Z,99.99
2022-08-26T03:35:04.902Z,99.99
2022-08-26T03:36:04.828Z,99.99
2022-08-26T03:37:04.752Z,99.99
2022-08-26T03:38:04.680Z,99.99
2022-08-26T03:39:04.608Z,99.99
2022-08-26T03:40:04.579Z,99.99
2022-08-26T03:41:04.462Z,99.99
2022-08-26T03:42:04.482Z,99.99
2022-08-26T03:43:04.364Z,99.99
2022-08-26T03:44:04.237Z,99.99
2022-08-26T03:45:04.166Z,99.99
2022-08-26T03:46:04.180Z,99.99
2022-08-26T03:47:04.018Z,99.99
2022-08-26T03:48:03.942Z,99.99
2022-08-26T03:49:03.872Z,99.99
2022-08-26T03:50:03.794Z,99.99
2022-08-26T03:51:03.723Z,99.99
2022-08-26T03:52:03.648Z,99.99
2022-08-26T03:53:03.698Z,99.99
2022-08-26T03:54:03.500Z,99.99
2022-08-26T03:55:03.427Z,99.99
2022-08-26T03:56:03.352Z,99.99
2022-08-26T03:57:03.531Z,99.99
2022-08-26T03:58:03.205Z,99.99
2022-08-26T03:59:03.135Z,99.99
2022-08-26T04:00:03.060Z,99.99
2022-08-26T04:01:02.986Z,99.99
2022-08-26T04:02:02.963Z,99.99
2022-08-26T04:03:02.989Z,99.99
2022-08-26T04:04:03.178Z,99.99
2022-08-26T04:05:02.691Z,99.99
2022-08-26T04:06:02.618Z,99.99
2022-08-26T04:07:02.542Z,99.99
2022-08-26T04:08:02.469Z,99.99
2022-08-26T04:09:02.396Z,99.99
2022-08-26T04:10:02.327Z,99.99
2022-08-26T04:11:02.497Z,99.99
2022-08-26T04:12:02.175Z,99.99
2022-08-26T04:13:02.144Z,99.99
2022-08-26T04:14:02.025Z,99.99
2022-08-26T04:15:01.954Z,99.99
2022-08-26T04:16:01.932Z,99.99
2022-08-26T04:17:01.807Z,99.99
2022-08-26T04:18:01.729Z,99.99
2022-08-26T04:19:01.657Z,99.99
2022-08-26T04:20:01.581Z,99.99
2022-08-26T04:21:01.509Z,99.99
2022-08-26T04:22:01.433Z,99.99
2022-08-26T04:23:01.463Z,99.99
2022-08-26T04:24:03.691Z,99.99
2022-08-26T04:25:01.216Z,99.99
2022-08-26T04:26:01.141Z,99.99
2022-08-26T04:27:01.102Z,99.99
2022-08-26T04:28:00.995Z,99.99
2022-08-26T04:29:00.917Z,99.99
2022-08-26T04:30:00.839Z,99.99
2022-08-26T04:31:00.809Z,99.99
2022-08-26T04:32:00.694Z,99.99
2022-08-26T04:33:00.622Z,99.99
2022-08-26T04:34:00.545Z,99.99
2022-08-26T04:35:00.728Z,99.99
2022-08-26T04:36:00.402Z,99.99
2022-08-26T04:37:00.326Z,99.99
2022-08-26T04:38:00.251Z,99.99
2022-08-26T04:39:00.178Z,99.99
2022-08-26T04:40:00.275Z,99.99
2022-08-26T04:41:00.028Z,99.99
2022-08-26T04:41:59.954Z,99.99
2022-08-26T04:42:59.880Z,99.99
2022-08-26T04:43:59.808Z,99.99
2022-08-26T04:44:59.734Z,99.99
2022-08-26T04:45:59.732Z,99.99
2022-08-26T04:46:59.582Z,99.99
2022-08-26T04:47:59.511Z,99.99
2022-08-26T04:48:59.485Z,99.99
2022-08-26T04:49:59.360Z,99.99
2022-08-26T04:50:59.287Z,99.99
2022-08-26T04:51:59.212Z,99.99
2022-08-26T04:52:59.140Z,99.99
2022-08-26T04:53:59.064Z,99.99
2022-08-26T04:54:58.990Z,99.99
2022-08-26T04:55:58.917Z,99.99
2022-08-26T04:56:58.845Z,99.99
2022-08-26T04:57:58.767Z,99.99
2022-08-26T04:58:58.698Z,99.99
2022-08-26T04:59:58.672Z,99.99
2022-08-26T05:00:58.623Z,99.99
2022-08-26T05:01:58.569Z,99.99
2022-08-26T05:02:58.399Z,99.99
2022-08-26T05:03:58.383Z,99.99
2022-08-26T05:04:58.254Z,99.99
2022-08-26T05:05:58.179Z,99.99
2022-08-26T05:07:02.383Z,99.99
2022-08-26T05:07:58.029Z,99.99
2022-08-26T05:08:57.959Z,99.99
2022-08-26T05:09:57.881Z,99.99
2022-08-26T05:10:57.811Z,99.99
2022-08-26T05:11:57.823Z,99.99
2022-08-26T05:12:57.662Z,99.99
2022-08-26T05:14:01.630Z,99.99
2022-08-26T05:14:57.513Z,99.99
2022-08-26T05:16:00.020Z,99.99
2022-08-26T05:16:57.417Z,99.99
2022-08-26T05:17:57.290Z,99.99
2022-08-26T05:18:57.219Z,99.99
2022-08-26T05:19:57.143Z,99.99
2022-08-26T05:20:57.072Z,99.99
2022-08-26T05:21:56.996Z,99.99
2022-08-26T05:22:56.924Z,99.99
2022-08-26T05:23:56.849Z,99.99
2022-08-26T05:24:56.776Z,99.99
2022-08-26T05:25:59.411Z,99.99
2022-08-26T05:26:56.629Z,99.99
2022-08-26T05:27:56.555Z,99.99
2022-08-26T05:28:56.483Z,99.99
2022-08-26T05:29:56.412Z,99.99
2022-08-26T05:30:56.393Z,99.99
2022-08-26T05:31:56.272Z,99.99
2022-08-26T05:32:56.190Z,99.99
2022-08-26T05:33:56.114Z,99.99
2022-08-26T05:34:56.045Z,99.99
2022-08-26T05:35:55.968Z,99.99
2022-08-26T05:36:55.896Z,99.99
2022-08-26T05:37:55.820Z,99.99
2022-08-26T05:38:55.746Z,99.99
2022-08-26T05:39:55.705Z,99.99
2022-08-26T05:40:55.603Z,99.99
2022-08-26T05:41:55.528Z,99.99
2022-08-26T05:42:55.606Z,99.99
2022-08-26T05:43:55.382Z,99.99
2022-08-26T05:44:55.973Z,99.99
2022-08-26T05:45:55.297Z,99.99
2022-08-26T05:46:55.164Z,99.99
2022-08-26T05:47:55.090Z,99.99
2022-08-26T05:48:55.020Z,99.99
2022-08-26T05:49:55.045Z,99.99
2022-08-26T05:50:54.882Z,99.99
2022-08-26T05:51:54.803Z,99.99
2022-08-26T05:52:54.728Z,99.99
2022-08-26T05:53:55.064Z,99.99
2022-08-26T05:54:54.584Z,99.99
2022-08-26T05:55:54.507Z,99.99
2022-08-26T05:56:54.440Z,99.99
2022-08-26T05:57:54.364Z,99.99
2022-08-26T05:58:54.293Z,99.99
2022-08-26T05:59:54.217Z,99.99
2022-08-26T06:00:54.300Z,99.99
2022-08-26T06:01:54.112Z,99.99
2022-08-26T06:02:54.069Z,99.99
2022-08-26T06:03:53.930Z,99.99
2022-08-26T06:04:53.858Z,99.99
2022-08-26T06:05:53.783Z,99.99
2022-08-26T06:06:53.719Z,99.99
2022-08-26T06:07:53.637Z,99.99
2022-08-26T06:08:53.571Z,99.99
2022-08-26T06:10:01.626Z,99.99
2022-08-26T06:10:53.424Z,99.99
2022-08-26T06:11:53.654Z,99.99
2022-08-26T06:12:53.281Z,99.99
2022-08-26T06:13:53.206Z,99.99
2022-08-26T06:14:53.136Z,99.93
2022-08-26T06:15:53.123Z,99.99
2022-08-26T06:16:52.999Z,99.99
2022-08-26T06:17:52.916Z,99.88
2022-08-26T06:18:52.846Z,99.99
2022-08-26T06:19:52.772Z,99.99
2022-08-26T06:20:57.874Z,99.99
2022-08-26T06:21:54.882Z,99.99
2022-08-26T06:22:52.559Z,99.99
2022-08-26T06:23:52.486Z,99.99
2022-08-26T06:24:52.414Z,99.99
2022-08-26T06:25:52.347Z,99.99
2022-08-26T06:26:52.268Z,99.99
2022-08-26T06:27:52.195Z,99.99
2022-08-26T06:28:52.159Z,99.99
2022-08-26T06:29:52.053Z,99.99
2022-08-26T06:30:52.062Z,99.99
2022-08-26T06:31:51.908Z,99.99
2022-08-26T06:32:51.836Z,99.99
2022-08-26T06:33:51.762Z,99.99
2022-08-26T06:34:51.689Z,99.99
2022-08-26T06:35:51.618Z,99.99
2022-08-26T06:36:53.098Z,99.99
2022-08-26T06:37:51.474Z,99.99
2022-08-26T06:38:51.401Z,99.99
2022-08-26T06:39:51.401Z,99.99
2022-08-26T06:40:51.257Z,99.99
2022-08-26T06:41:51.182Z,99.99
2022-08-26T06:42:51.114Z,99.99
2022-08-26T06:43:51.041Z,99.99
2022-08-26T06:44:50.971Z,99.99
2022-08-26T06:45:50.895Z,99.99
2022-08-26T06:46:51.374Z,99.99
2022-08-26T06:47:50.750Z,99.99
2022-08-26T06:48:50.680Z,99.99
2022-08-26T06:49:51.104Z,99.99
2022-08-26T06:50:50.536Z,99.99
2022-08-26T06:51:50.462Z,99.99
2022-08-26T06:52:50.393Z,99.99
2022-08-26T06:53:50.317Z,99.99
2022-08-26T06:54:50.249Z,99.99
2022-08-26T06:55:51.784Z,99.99
2022-08-26T06:56:50.107Z,99.99
2022-08-26T06:57:50.030Z,99.99
2022-08-26T06:58:50.010Z,99.99
2022-08-26T06:59:51.199Z,99.99
2022-08-26T07:00:49.818Z,99.79
2022-08-26T07:01:50.048Z,99.11
2022-08-26T07:02:49.700Z,98.44
2022-08-26T07:03:49.599Z,97.86
2022-08-26T07:04:51.090Z,97.81
2022-08-26T07:05:49.457Z,97.81
2022-08-26T07:06:49.385Z,97.14
2022-08-26T07:07:49.320Z,97.04
2022-08-26T07:08:49.244Z,96.07
2022-08-26T07:09:49.334Z,96.65
2022-08-26T07:10:49.098Z,96.22
2022-08-26T07:11:49.193Z,96.60
2022-08-26T07:12:48.957Z,96.51
2022-08-26T07:13:48.884Z,96.12
2022-08-26T07:14:48.812Z,96.12
2022-08-26T07:15:48.771Z,95.64
2022-08-26T07:16:48.671Z,94.18
2022-08-26T07:17:48.606Z,93.90
2022-08-26T07:18:48.527Z,93.70
2022-08-26T07:19:48.459Z,93.94
2022-08-26T07:20:48.391Z,93.02
2022-08-26T07:21:48.311Z,93.41
2022-08-26T07:22:48.241Z,93.22
2022-08-26T07:23:48.169Z,93.51
2022-08-26T07:24:48.100Z,93.12
2022-08-26T07:25:48.026Z,93.41
2022-08-26T07:26:47.955Z,93.60
2022-08-26T07:27:54.269Z,92.97
2022-08-26T07:28:47.814Z,92.49
2022-08-26T07:29:47.742Z,92.78
2022-08-26T07:30:47.694Z,92.88
2022-08-26T07:31:47.601Z,92.44
2022-08-26T07:32:47.529Z,92.54
2022-08-26T07:33:47.457Z,92.63
2022-08-26T07:34:47.536Z,92.15
2022-08-26T07:35:47.318Z,91.71
2022-08-26T07:36:47.243Z,91.22
2022-08-26T07:37:47.173Z,90.64
2022-08-26T07:38:47.103Z,90.36
2022-08-26T07:39:47.164Z,90.26
2022-08-26T07:40:46.961Z,90.45
2022-08-26T07:41:46.890Z,90.16
2022-08-26T07:42:46.818Z,89.62
2022-08-26T07:43:46.752Z,89.33
2022-08-26T07:44:46.675Z,89.53
2022-08-26T07:45:49.256Z,89.23
2022-08-26T07:46:53.332Z,88.37
2022-08-26T07:47:46.606Z,88.85
2022-08-26T07:48:46.446Z,88.21
2022-08-26T07:49:46.429Z,88.41
2022-08-26T07:50:49.121Z,88.41
2022-08-26T07:51:46.182Z,87.15
2022-08-26T07:52:46.113Z,86.66
2022-08-26T07:53:48.013Z,86.61
2022-08-26T07:54:45.972Z,86.41
2022-08-26T07:55:45.900Z,86.22
2022-08-26T07:56:45.832Z,86.12
2022-08-26T07:57:45.760Z,85.83
2022-08-26T07:58:48.963Z,85.29
2022-08-26T07:59:45.618Z,85.29
2022-08-26T08:00:45.549Z,84.52
2022-08-26T08:01:45.552Z,84.52
2022-08-26T08:02:45.407Z,84.28
2022-08-26T08:03:45.344Z,84.47
2022-08-26T08:04:45.302Z,86.02
2022-08-26T08:05:46.409Z,84.86
2022-08-26T08:06:45.127Z,85.06
2022-08-26T08:07:45.599Z,85.35
2022-08-26T08:08:44.986Z,84.57
2022-08-26T08:09:44.915Z,84.47
2022-08-26T08:10:44.848Z,84.52
2022-08-26T08:11:44.786Z,83.74
2022-08-26T08:12:44.705Z,83.54
2022-08-26T08:13:44.634Z,83.35
2022-08-26T08:14:44.564Z,83.74
2022-08-26T08:15:44.495Z,83.88
2022-08-26T08:16:46.759Z,83.39
2022-08-26T08:17:44.354Z,82.52
2022-08-26T08:18:44.288Z,82.90
2022-08-26T08:19:44.214Z,83.20
2022-08-26T08:20:47.691Z,82.37
2022-08-26T08:21:44.073Z,82.27
2022-08-26T08:22:44.007Z,81.39
2022-08-26T08:23:43.933Z,81.93
2022-08-26T08:24:43.867Z,82.27
2022-08-26T08:25:43.794Z,81.78
2022-08-26T08:26:43.725Z,82.46
2022-08-26T08:27:43.654Z,81.88
2022-08-26T08:28:43.971Z,81.59
2022-08-26T08:29:43.515Z,81.30
2022-08-26T08:30:43.714Z,81.49
2022-08-26T08:31:59.451Z,81.78
2022-08-26T08:32:43.344Z,81.59
2022-08-26T08:33:43.275Z,81.98
2022-08-26T08:35:43.097Z,82.17
2022-08-26T08:36:43.269Z,82.13
2022-08-26T08:38:42.923Z,82.37
2022-08-26T08:39:42.820Z,82.56
2022-08-26T08:40:42.788Z,81.98
2022-08-26T08:41:42.680Z,82.37
2022-08-26T08:42:42.706Z,82.27
2022-08-26T08:43:42.579Z,82.37
2022-08-26T08:44:42.483Z,82.27
2022-08-26T08:45:42.500Z,82.50
2022-08-26T08:47:39.833Z,81.68
2022-08-26T08:48:39.764Z,81.49
2022-08-26T08:49:39.711Z,82.27
2022-08-26T08:50:39.624Z,82.85
2022-08-26T08:51:39.557Z,82.17
2022-08-26T08:52:39.490Z,82.31
2022-08-26T08:53:39.416Z,82.40
2022-08-26T08:54:39.582Z,82.17
2022-08-26T08:55:39.477Z,82.40
2022-08-26T08:56:39.411Z,82.11
2022-08-26T08:57:39.138Z,82.31
2022-08-26T08:58:39.070Z,81.53
2022-08-26T08:59:38.998Z,81.86
2022-08-26T09:00:39.781Z,81.09
2022-08-26T09:01:38.889Z,81.28
2022-08-26T09:02:38.840Z,81.18
2022-08-26T09:03:38.723Z,81.28
2022-08-26T09:04:38.659Z,81.18
2022-08-26T09:05:38.581Z,80.99
2022-08-26T09:06:38.516Z,81.09
2022-08-26T09:07:38.446Z,80.89
2022-08-26T09:08:38.379Z,81.38
2022-08-26T09:09:38.310Z,81.38
2022-08-26T09:10:38.238Z,81.18
2022-08-26T09:11:38.169Z,81.57
2022-08-26T09:12:38.099Z,81.41
2022-08-26T09:13:38.030Z,80.64
2022-08-26T09:14:37.963Z,80.93
2022-08-26T09:15:37.897Z,80.44
2022-08-26T09:16:38.716Z,80.15
2022-08-26T09:17:37.750Z,80.05
2022-08-26T09:18:37.836Z,79.86
2022-08-26T09:19:40.235Z,80.05
2022-08-26T09:20:37.548Z,79.38
2022-08-26T09:21:37.477Z,79.38
2022-08-26T09:22:37.416Z,78.73
2022-08-26T09:23:37.338Z,78.44
2022-08-26T09:24:41.857Z,78.25
2022-08-26T09:25:37.201Z,78.44
2022-08-26T09:26:37.132Z,77.95
2022-08-26T09:27:37.593Z,77.95
2022-08-26T09:28:37.033Z,78.25
2022-08-26T09:29:36.928Z,77.86
2022-08-26T09:30:36.887Z,78.44
2022-08-26T09:31:36.922Z,77.95
2022-08-26T09:32:36.722Z,78.73
2022-08-26T09:33:36.650Z,78.73
2022-08-26T09:34:36.641Z,78.15
2022-08-26T09:35:36.516Z,78.69
2022-08-26T09:36:41.010Z,78.40
2022-08-26T09:37:36.431Z,77.82
2022-08-26T09:38:36.308Z,78.20
2022-08-26T09:39:36.290Z,78.11
2022-08-26T09:40:36.295Z,78.01
2022-08-26T09:41:36.103Z,79.08
2022-08-26T09:42:36.036Z,79.47
2022-08-26T09:43:35.965Z,80.25
2022-08-26T09:44:35.897Z,80.02
2022-08-26T09:45:35.898Z,80.21
2022-08-26T09:46:35.930Z,80.30
2022-08-26T09:47:35.690Z,80.36
2022-08-26T09:48:36.433Z,80.07
2022-08-26T09:49:36.415Z,80.36
2022-08-26T09:50:35.483Z,80.66
2022-08-26T09:51:38.032Z,80.85
2022-08-26T09:52:35.689Z,81.34
2022-08-26T09:53:35.311Z,80.91
2022-08-26T09:54:35.205Z,81.10
2022-08-26T09:56:17.877Z,80.81
2022-08-26T09:57:17.838Z,81.10
2022-08-26T09:58:17.743Z,81.39
2022-08-26T09:59:18.881Z,81.49
2022-08-26T10:00:17.600Z,81.49
2022-08-26T10:01:17.650Z,81.39
2022-08-26T10:02:20.079Z,80.81
2022-08-26T10:03:17.733Z,80.81
2022-08-26T10:04:17.374Z,81.20
2022-08-26T10:05:17.291Z,81.39
2022-08-26T10:06:17.179Z,81.59
2022-08-26T10:07:18.564Z,81.84
2022-08-26T10:08:17.038Z,81.88
2022-08-26T10:09:16.976Z,81.55
2022-08-26T10:10:16.903Z,81.88
2022-08-26T10:11:16.833Z,82.07
2022-08-26T10:12:16.795Z,82.27
2022-08-26T10:13:16.693Z,82.27
2022-08-26T10:14:16.621Z,82.32
2022-08-26T10:15:16.554Z,82.27
2022-08-26T10:16:16.569Z,82.17
2022-08-26T10:17:16.412Z,83.04
2022-08-26T10:18:16.344Z,82.42
2022-08-26T10:19:16.277Z,83.10
2022-08-26T10:20:23.443Z,82.23
2022-08-26T10:21:17.967Z,82.90
2022-08-26T10:22:16.065Z,83.10
2022-08-26T10:23:15.994Z,82.81
2022-08-26T10:24:15.923Z,83.20
2022-08-26T10:25:15.854Z,83.59
2022-08-26T10:26:15.786Z,83.88
2022-08-26T10:27:15.753Z,84.07
2022-08-26T10:28:15.644Z,83.97
2022-08-26T10:29:15.575Z,84.07
2022-08-26T10:30:15.505Z,83.78
2022-08-26T10:31:15.437Z,83.97
2022-08-26T10:32:15.441Z,83.74
2022-08-26T10:33:15.294Z,84.03
2022-08-26T10:34:15.274Z,83.84
2022-08-26T10:35:15.156Z,83.94
2022-08-26T10:37:16.440Z,84.12
2022-08-26T10:38:14.946Z,83.74
2022-08-26T10:39:14.874Z,83.94
2022-08-26T10:40:14.970Z,83.94
2022-08-26T10:41:15.840Z,84.12
2022-08-26T10:42:14.667Z,84.71
2022-08-26T10:43:14.596Z,84.81
2022-08-26T10:44:14.634Z,84.61
2022-08-26T10:45:15.269Z,84.61
2022-08-26T10:46:14.555Z,84.81
2022-08-26T10:47:14.313Z,84.42
2022-08-26T10:48:14.243Z,84.42
2022-08-26T10:49:14.172Z,85.00
2022-08-26T10:50:14.136Z,84.67
2022-08-26T10:51:14.033Z,84.67
2022-08-26T10:52:16.486Z,85.44
2022-08-26T10:53:13.893Z,85.35
2022-08-26T10:54:13.823Z,85.93
2022-08-26T10:55:13.753Z,85.93
2022-08-26T10:56:15.876Z,85.44
2022-08-26T10:57:13.612Z,86.12
2022-08-26T10:58:13.895Z,85.83
2022-08-26T10:59:13.512Z,85.83
2022-08-26T11:00:13.486Z,85.93
2022-08-26T11:01:13.369Z,86.02
2022-08-26T11:02:13.262Z,86.51
2022-08-26T11:03:21.623Z,86.51
2022-08-26T11:04:13.190Z,86.51
2022-08-26T11:05:13.048Z,86.22
2022-08-26T11:06:12.981Z,86.51
2022-08-26T11:07:12.949Z,86.22
2022-08-26T11:08:12.838Z,86.66
2022-08-26T11:10:30.625Z,86.95
2022-08-26T11:11:30.252Z,86.99
2022-08-26T11:12:30.142Z,86.80
2022-08-26T11:13:30.075Z,86.71
2022-08-26T11:14:33.039Z,86.99
2022-08-26T11:15:30.134Z,86.41
2022-08-26T11:16:29.964Z,86.61
2022-08-26T11:17:29.828Z,86.66
2022-08-26T11:18:29.723Z,87.05
2022-08-26T11:20:29.581Z,86.80
2022-08-26T11:21:29.684Z,87.34
2022-08-26T11:22:29.440Z,87.05
2022-08-26T11:23:29.369Z,86.99
2022-08-26T11:24:29.302Z,86.95
2022-08-26T11:25:30.966Z,87.09
2022-08-26T11:26:43.190Z,88.26
2022-08-26T11:27:29.089Z,87.58
2022-08-26T11:28:29.022Z,86.71
2022-08-26T11:29:28.951Z,86.99
2022-08-26T11:30:28.882Z,87.09
2022-08-26T11:31:28.845Z,86.71
2022-08-26T11:32:28.741Z,86.99
2022-08-26T11:33:28.669Z,86.51
2022-08-26T11:34:28.600Z,86.51
2022-08-26T11:35:28.526Z,87.48
2022-08-26T11:36:28.465Z,87.77
2022-08-26T11:37:28.391Z,87.96
2022-08-26T11:38:28.320Z,87.29
2022-08-26T11:39:28.255Z,86.71
2022-08-26T11:40:28.235Z,87.09
2022-08-26T11:41:28.110Z,86.99
2022-08-26T11:42:28.041Z,86.99
2022-08-26T11:43:29.852Z,87.33
2022-08-26T11:44:27.903Z,86.94
2022-08-26T11:45:28.477Z,87.23
2022-08-26T11:46:27.764Z,87.04
2022-08-26T11:47:28.802Z,86.80
2022-08-26T11:48:27.621Z,86.32
2022-08-26T11:49:27.550Z,86.46
2022-08-26T11:50:27.481Z,86.46
2022-08-26T11:51:27.410Z,87.04
2022-08-26T11:52:27.346Z,87.09
2022-08-26T11:53:27.274Z,86.90
2022-08-26T11:54:35.360Z,87.33
2022-08-26T11:55:27.382Z,86.99
2022-08-26T11:56:27.064Z,86.94
2022-08-26T11:57:26.994Z,86.36
2022-08-26T11:58:26.924Z,86.55
2022-08-26T11:59:26.889Z,86.36
2022-08-26T12:00:26.785Z,86.26
2022-08-26T12:01:26.714Z,86.50
2022-08-26T12:02:26.644Z,86.40
2022-08-26T12:03:26.711Z,85.63
2022-08-26T12:04:26.598Z,85.24
2022-08-26T12:05:26.802Z,84.66
2022-08-26T12:07:26.306Z,84.94
2022-08-26T12:08:27.992Z,84.70
2022-08-26T12:09:26.160Z,83.82
2022-08-26T12:10:26.092Z,84.31
2022-08-26T12:11:26.220Z,83.72
2022-08-26T12:12:25.953Z,84.16
2022-08-26T12:13:26.338Z,83.28
2022-08-26T12:14:25.816Z,82.31
2022-08-26T12:15:25.747Z,82.11
2022-08-26T12:16:25.696Z,82.45
2022-08-26T12:17:25.608Z,82.06
2022-08-26T12:18:29.413Z,81.51
2022-08-26T12:19:25.471Z,82.58
2022-08-26T12:20:25.403Z,81.22
2022-08-26T12:21:26.748Z,80.05
2022-08-26T12:22:25.271Z,79.86
2022-08-26T12:23:25.196Z,80.25
2022-08-26T12:24:25.128Z,80.19
2022-08-26T12:25:25.160Z,78.20
2022-08-26T12:26:24.994Z,78.11
2022-08-26T12:27:24.924Z,78.99
2022-08-26T12:28:24.857Z,79.18
2022-08-26T12:29:27.060Z,78.79
2022-08-26T12:30:24.721Z,77.76
2022-08-26T12:31:24.778Z,78.15
2022-08-26T12:32:24.672Z,78.34
2022-08-26T12:33:24.530Z,77.95
2022-08-26T12:35:24.423Z,78.58
2022-08-26T12:36:24.827Z,77.11
2022-08-26T12:37:24.489Z,76.73
2022-08-26T12:39:24.148Z,77.17
2022-08-26T12:40:24.076Z,78.53
2022-08-26T12:41:24.009Z,77.95
2022-08-26T12:42:23.909Z,78.15
2022-08-26T12:44:23.810Z,78.53
2022-08-26T12:45:24.073Z,77.27
2022-08-26T12:46:23.636Z,77.37
2022-08-26T12:47:28.751Z,77.86
2022-08-26T12:48:24.587Z,78.15
2022-08-26T12:49:23.435Z,78.05
2022-08-26T13:07:22.312Z,76.78
2022-08-26T13:09:22.115Z,76.68
2022-08-26T13:10:22.017Z,77.17
2022-08-26T13:11:22.756Z,77.76
2022-08-26T13:12:21.924Z,77.47
2022-08-26T13:14:04.626Z,76.73
2022-08-26T13:15:04.238Z,76.34
2022-08-26T13:16:04.196Z,76.73
2022-08-26T13:17:04.103Z,76.53
2022-08-26T13:19:04.001Z,75.79
2022-08-26T13:24:06.253Z,75.40
2022-08-26T13:25:03.563Z,75.01
2022-08-26T13:26:03.501Z,75.04
2022-08-26T13:27:03.430Z,75.43
2022-08-26T13:30:03.229Z,75.34
2022-08-26T13:31:03.206Z,74.95
2022-08-26T13:32:03.499Z,75.08
2022-08-26T13:33:03.127Z,74.37
2022-08-26T13:34:02.966Z,74.46
2022-08-26T13:35:05.604Z,73.72
2022-08-26T13:36:05.450Z,74.40
2022-08-26T13:37:02.814Z,73.33
2022-08-26T13:38:03.306Z,72.94
2022-08-26T13:39:05.451Z,74.34
2022-08-26T13:40:02.640Z,73.75
2022-08-26T13:41:02.502Z,73.17
2022-08-26T13:42:02.482Z,73.17
2022-08-26T13:43:02.621Z,72.94
2022-08-26T13:44:02.298Z,72.74
2022-08-26T13:45:02.316Z,73.36
2022-08-26T13:46:02.165Z,73.36
2022-08-26T13:47:02.136Z,73.27
2022-08-26T13:48:02.077Z,73.79
2022-08-26T13:49:01.967Z,71.64
2022-08-26T13:50:02.915Z,70.86
2022-08-26T13:52:01.769Z,72.72
2022-08-26T13:53:01.702Z,70.96
2022-08-26T13:54:01.641Z,71.06
2022-08-26T13:55:01.583Z,70.86
2022-08-26T13:56:01.504Z,71.35
2022-08-26T13:57:01.441Z,71.06
2022-08-26T13:58:01.374Z,70.61
2022-08-26T13:59:01.513Z,71.09
2022-08-26T14:00:01.241Z,69.85
2022-08-26T14:01:01.227Z,68.68
2022-08-26T14:02:01.111Z,68.16
2022-08-26T14:03:01.087Z,68.26
2022-08-26T14:04:00.979Z,67.48
2022-08-26T14:05:00.915Z,67.87
2022-08-26T14:06:00.849Z,68.26
2022-08-26T14:07:00.785Z,67.87
2022-08-26T14:08:00.717Z,66.99
2022-08-26T14:09:00.654Z,67.58
2022-08-26T14:10:00.587Z,67.77
2022-08-26T14:11:00.526Z,67.19
2022-08-26T14:12:02.674Z,67.77
2022-08-26T14:13:00.407Z,67.64
2022-08-26T14:14:00.395Z,67.93
2022-08-26T14:15:00.281Z,68.32
2022-08-26T14:16:00.255Z,67.93
2022-08-26T14:17:00.641Z,67.90
2022-08-26T14:18:00.071Z,68.71
2022-08-26T14:18:59.999Z,68.68
2022-08-26T14:20:00.033Z,69.20
2022-08-26T14:20:59.870Z,68.32
2022-08-26T14:21:59.804Z,67.83
2022-08-26T14:23:15.187Z,68.62
2022-08-26T14:24:01.050Z,68.81
2022-08-26T14:24:59.605Z,68.71
2022-08-26T14:25:59.539Z,69.26
2022-08-26T14:26:59.480Z,69.17
2022-08-26T14:27:59.406Z,69.65
2022-08-26T14:28:59.341Z,69.17
2022-08-26T14:29:59.319Z,71.31
2022-08-26T14:30:59.252Z,73.13
2022-08-26T14:31:59.141Z,73.97
2022-08-26T14:32:59.076Z,74.37
2022-08-26T14:33:59.014Z,74.56
2022-08-26T14:34:58.959Z,74.50
2022-08-26T14:35:58.876Z,74.89
2022-08-26T14:36:58.808Z,71.86
2022-08-26T14:37:58.742Z,71.80
2022-08-26T14:38:58.676Z,70.86
2022-08-26T14:39:58.653Z,68.91
2022-08-26T14:40:58.544Z,69.53
2022-08-26T14:41:58.477Z,67.44
2022-08-26T14:42:58.782Z,66.40
2022-08-26T14:44:00.968Z,65.88
2022-08-26T14:44:58.329Z,65.13
2022-08-26T14:45:59.241Z,63.40
2022-08-26T14:46:58.215Z,63.49
2022-08-26T14:47:58.086Z,63.01
2022-08-26T14:55:37.717Z,60.47
2022-08-26T14:56:39.084Z,57.64
2022-08-26T14:57:34.972Z,57.03
2022-08-26T15:01:04.114Z,57.60
2022-08-26T15:02:00.801Z,57.77
2022-08-26T15:04:57.914Z,58.45
2022-08-26T15:05:57.854Z,58.29
2022-08-26T15:07:31.004Z,58.29
2022-08-26T15:07:57.732Z,57.92
2022-08-26T15:08:57.669Z,57.07
2022-08-26T15:09:57.612Z,56.97
2022-08-26T15:10:57.551Z,57.11
2022-08-26T15:11:57.486Z,58.53
2022-08-26T15:12:57.425Z,58.50
2022-08-26T15:13:57.366Z,58.93
2022-08-26T15:14:57.303Z,60.08
2022-08-26T15:15:57.336Z,60.50
2022-08-26T15:16:57.182Z,61.38
2022-08-26T15:17:57.116Z,62.50
2022-08-26T15:19:56.992Z,64.51
2022-08-26T15:21:56.865Z,64.32
2022-08-26T15:22:57.571Z,64.71